sensor_id;sensor_type;location;lat;lon;timestamp;temperature;humidity
1181;DHT22;579;52.046;8.532;2023-04-03T00:01:03;5.90;1.00
1181;DHT22;579;52.046;8.532;2023-04-03T00:03:30;6.10;1.00
1181;DHT22;579;52.046;8.532;2023-04-03T00:05:56;5.80;1.00
1181;DHT22;579;52.046;8.532;2023-04-03T00:08:22;6.00;1.00
1181;DHT22;579;52.046;8.532;2023-04-03T00:16:02;5.80;1.00
1181;DHT22;579;52.046;8.532;2023-04-03T00:18:29;5.60;1.00
1181;DHT22;579;52.046;8.532;2023-04-03T00:20:55;5.50;1.00
1181;DHT22;579;52.046;8.532;2023-04-03T00:23:22;5.60;1.00
1181;DHT22;579;52.046;8.532;2023-04-03T00:25:49;5.60;1.00
1181;DHT22;579;52.046;8.532;2023-04-03T00:28:17;5.40;1.00
1181;DHT22;579;52.046;8.532;2023-04-03T00:30:44;5.40;1.00
1181;DHT22;579;52.046;8.532;2023-04-03T00:38:17;4.90;1.00
1181;DHT22;579;52.046;8.532;2023-04-03T00:40:45;5.00;1.00
1181;DHT22;579;52.046;8.532;2023-04-03T00:43:16;4.80;1.00
1181;DHT22;579;52.046;8.532;2023-04-03T00:45:45;5.00;1.00
1181;DHT22;579;52.046;8.532;2023-04-03T00:48:16;5.30;1.00
1181;DHT22;579;52.046;8.532;2023-04-03T00:50:45;5.00;1.00
1181;DHT22;579;52.046;8.532;2023-04-03T00:53:16;4.90;1.00
1181;DHT22;579;52.046;8.532;2023-04-03T01:00:54;4.90;1.00
1181;DHT22;579;52.046;8.532;2023-04-03T01:03:23;4.70;1.00
1181;DHT22;579;52.046;8.532;2023-04-03T01:05:49;4.60;1.00
1181;DHT22;579;52.046;8.532;2023-04-03T01:08:16;4.70;1.00
1181;DHT22;579;52.046;8.532;2023-04-03T01:10:43;4.70;1.00
1181;DHT22;579;52.046;8.532;2023-04-03T01:13:24;4.50;1.00
1181;DHT22;579;52.046;8.532;2023-04-03T01:15:53;4.50;1.00
1181;DHT22;579;52.046;8.532;2023-04-03T01:23:37;4.60;1.00
1181;DHT22;579;52.046;8.532;2023-04-03T01:26:18;4.40;1.00
1181;DHT22;579;52.046;8.532;2023-04-03T01:28:45;4.20;1.00
1181;DHT22;579;52.046;8.532;2023-04-03T01:31:17;4.30;1.00
1181;DHT22;579;52.046;8.532;2023-04-03T01:33:47;4.20;1.00
1181;DHT22;579;52.046;8.532;2023-04-03T01:36:15;4.30;1.00
1181;DHT22;579;52.046;8.532;2023-04-03T01:45:22;4.30;1.00
1181;DHT22;579;52.046;8.532;2023-04-03T01:47:49;4.20;1.00
1181;DHT22;579;52.046;8.532;2023-04-03T01:50:15;3.90;1.00
1181;DHT22;579;52.046;8.532;2023-04-03T01:52:41;3.90;1.00
1181;DHT22;579;52.046;8.532;2023-04-03T01:55:08;3.80;1.00
1181;DHT22;579;52.046;8.532;2023-04-03T01:57:35;3.80;1.00
1181;DHT22;579;52.046;8.532;2023-04-03T02:00:01;3.70;1.00
1181;DHT22;579;52.046;8.532;2023-04-03T02:07:23;3.90;1.00
1181;DHT22;579;52.046;8.532;2023-04-03T02:09:50;3.80;1.00
1181;DHT22;579;52.046;8.532;2023-04-03T02:12:16;3.80;1.00
1181;DHT22;579;52.046;8.532;2023-04-03T02:14:42;3.70;1.00
1181;DHT22;579;52.046;8.532;2023-04-03T02:17:08;3.50;1.00
1181;DHT22;579;52.046;8.532;2023-04-03T02:19:35;3.30;1.00
1181;DHT22;579;52.046;8.532;2023-04-03T02:22:01;3.40;1.00
1181;DHT22;579;52.046;8.532;2023-04-03T02:29:22;3.20;1.00
1181;DHT22;579;52.046;8.532;2023-04-03T02:31:49;3.30;1.00
1181;DHT22;579;52.046;8.532;2023-04-03T02:34:16;3.10;1.00
1181;DHT22;579;52.046;8.532;2023-04-03T02:36:42;3.20;1.00
1181;DHT22;579;52.046;8.532;2023-04-03T02:39:08;3.30;1.00
1181;DHT22;579;52.046;8.532;2023-04-03T02:41:35;3.20;1.00
1181;DHT22;579;52.046;8.532;2023-04-03T02:44:01;3.20;1.00
1181;DHT22;579;52.046;8.532;2023-04-03T02:50:57;3.00;1.00
1181;DHT22;579;52.046;8.532;2023-04-03T02:53:24;2.90;1.00
1181;DHT22;579;52.046;8.532;2023-04-03T02:55:50;3.00;1.00
1181;DHT22;579;52.046;8.532;2023-04-03T02:58:16;3.00;1.00
1181;DHT22;579;52.046;8.532;2023-04-03T03:00:43;2.90;1.00
1181;DHT22;579;52.046;8.532;2023-04-03T03:03:09;2.90;1.00
1181;DHT22;579;52.046;8.532;2023-04-03T03:05:35;2.80;1.00
1181;DHT22;579;52.046;8.532;2023-04-03T03:11:50;2.80;1.00
1181;DHT22;579;52.046;8.532;2023-04-03T03:14:16;2.90;1.00
1181;DHT22;579;52.046;8.532;2023-04-03T03:16:43;2.90;1.00
1181;DHT22;579;52.046;8.532;2023-04-03T03:19:09;3.10;1.00
1181;DHT22;579;52.046;8.532;2023-04-03T03:21:36;3.10;1.00
1181;DHT22;579;52.046;8.532;2023-04-03T03:24:03;3.00;1.00
1181;DHT22;579;52.046;8.532;2023-04-03T03:26:29;3.10;1.00
1181;DHT22;579;52.046;8.532;2023-04-03T03:33:33;2.90;1.00
1181;DHT22;579;52.046;8.532;2023-04-03T03:36:00;2.80;1.00
1181;DHT22;579;52.046;8.532;2023-04-03T03:38:26;2.90;1.00
1181;DHT22;579;52.046;8.532;2023-04-03T03:40:53;3.10;1.00
1181;DHT22;579;52.046;8.532;2023-04-03T03:43:19;3.30;1.00
1181;DHT22;579;52.046;8.532;2023-04-03T03:45:50;3.10;1.00
1181;DHT22;579;52.046;8.532;2023-04-03T03:48:17;3.10;1.00
1181;DHT22;579;52.046;8.532;2023-04-03T03:55:47;3.30;1.00
1181;DHT22;579;52.046;8.532;2023-04-03T03:58:13;3.20;1.00
1181;DHT22;579;52.046;8.532;2023-04-03T04:00:39;3.00;1.00
1181;DHT22;579;52.046;8.532;2023-04-03T04:03:06;2.90;1.00
1181;DHT22;579;52.046;8.532;2023-04-03T04:05:32;2.90;1.00
1181;DHT22;579;52.046;8.532;2023-04-03T04:07:58;3.20;1.00
1181;DHT22;579;52.046;8.532;2023-04-03T04:10:25;2.90;1.00
1181;DHT22;579;52.046;8.532;2023-04-03T04:17:53;2.70;1.00
1181;DHT22;579;52.046;8.532;2023-04-03T04:20:20;2.80;1.00
1181;DHT22;579;52.046;8.532;2023-04-03T04:22:46;2.80;1.00
1181;DHT22;579;52.046;8.532;2023-04-03T04:25:13;2.70;1.00
1181;DHT22;579;52.046;8.532;2023-04-03T04:27:39;2.70;1.00
1181;DHT22;579;52.046;8.532;2023-04-03T04:30:07;2.70;1.00
1181;DHT22;579;52.046;8.532;2023-04-03T04:32:33;2.70;1.00
1181;DHT22;579;52.046;8.532;2023-04-03T04:40:00;2.70;1.00
1181;DHT22;579;52.046;8.532;2023-04-03T04:42:27;2.70;1.00
1181;DHT22;579;52.046;8.532;2023-04-03T04:44:53;2.60;1.00
1181;DHT22;579;52.046;8.532;2023-04-03T04:47:19;2.70;1.00
1181;DHT22;579;52.046;8.532;2023-04-03T04:49:46;2.70;1.00
1181;DHT22;579;52.046;8.532;2023-04-03T04:52:13;2.70;1.00
1181;DHT22;579;52.046;8.532;2023-04-03T04:54:39;2.70;1.00
1181;DHT22;579;52.046;8.532;2023-04-03T05:02:11;2.80;1.00
1181;DHT22;579;52.046;8.532;2023-04-03T05:04:37;2.70;1.00
1181;DHT22;579;52.046;8.532;2023-04-03T05:07:03;2.70;1.00
1181;DHT22;579;52.046;8.532;2023-04-03T05:09:30;2.60;1.00
1181;DHT22;579;52.046;8.532;2023-04-03T05:11:56;2.70;1.00
1181;DHT22;579;52.046;8.532;2023-04-03T05:14:22;3.70;1.00
1181;DHT22;579;52.046;8.532;2023-04-03T05:16:49;2.90;1.00
1181;DHT22;579;52.046;8.532;2023-04-03T05:24:23;2.80;1.00
1181;DHT22;579;52.046;8.532;2023-04-03T05:26:49;2.90;1.00
1181;DHT22;579;52.046;8.532;2023-04-03T05:29:15;2.80;1.00
1181;DHT22;579;52.046;8.532;2023-04-03T05:31:42;2.90;1.00
1181;DHT22;579;52.046;8.532;2023-04-03T05:34:09;3.00;1.00
1181;DHT22;579;52.046;8.532;2023-04-03T05:36:35;3.00;1.00
1181;DHT22;579;52.046;8.532;2023-04-03T05:39:02;2.90;1.00
1181;DHT22;579;52.046;8.532;2023-04-03T05:44:09;3.10;1.00
1181;DHT22;579;52.046;8.532;2023-04-03T05:46:35;3.00;1.00
1181;DHT22;579;52.046;8.532;2023-04-03T05:49:01;3.30;1.00
1181;DHT22;579;52.046;8.532;2023-04-03T05:51:30;3.50;1.00
1181;DHT22;579;52.046;8.532;2023-04-03T05:54:06;3.50;1.00
1181;DHT22;579;52.046;8.532;2023-04-03T05:56:35;3.50;1.00
1181;DHT22;579;52.046;8.532;2023-04-03T05:59:01;4.10;1.00
1181;DHT22;579;52.046;8.532;2023-04-03T06:06:45;3.50;1.00
1181;DHT22;579;52.046;8.532;2023-04-03T06:09:12;3.40;1.00
1181;DHT22;579;52.046;8.532;2023-04-03T06:11:39;3.30;1.00
1181;DHT22;579;52.046;8.532;2023-04-03T06:14:05;3.30;1.00
1181;DHT22;579;52.046;8.532;2023-04-03T06:16:33;3.30;1.00
1181;DHT22;579;52.046;8.532;2023-04-03T06:18:59;3.60;1.00
1181;DHT22;579;52.046;8.532;2023-04-03T06:21:26;3.60;1.00
1181;DHT22;579;52.046;8.532;2023-04-03T06:28:56;3.90;1.00
1181;DHT22;579;52.046;8.532;2023-04-03T06:31:23;3.70;1.00
1181;DHT22;579;52.046;8.532;2023-04-03T06:33:50;3.80;1.00
1181;DHT22;579;52.046;8.532;2023-04-03T06:36:18;3.90;1.00
1181;DHT22;579;52.046;8.532;2023-04-03T06:38:46;3.80;1.00
1181;DHT22;579;52.046;8.532;2023-04-03T06:41:13;4.10;1.00
1181;DHT22;579;52.046;8.532;2023-04-03T06:43:40;4.10;1.00
1181;DHT22;579;52.046;8.532;2023-04-03T06:50:24;4.10;1.00
1181;DHT22;579;52.046;8.532;2023-04-03T06:52:50;4.20;1.00
1181;DHT22;579;52.046;8.532;2023-04-03T06:55:16;4.30;1.00
1181;DHT22;579;52.046;8.532;2023-04-03T06:57:43;4.30;1.00
1181;DHT22;579;52.046;8.532;2023-04-03T07:00:11;4.60;1.00
1181;DHT22;579;52.046;8.532;2023-04-03T07:02:38;4.90;1.00
1181;DHT22;579;52.046;8.532;2023-04-03T07:05:05;4.60;1.00
1181;DHT22;579;52.046;8.532;2023-04-03T07:12:23;4.70;1.00
1181;DHT22;579;52.046;8.532;2023-04-03T07:14:49;4.90;1.00
1181;DHT22;579;52.046;8.532;2023-04-03T07:17:15;5.10;1.00
1181;DHT22;579;52.046;8.532;2023-04-03T07:19:42;5.20;1.00
1181;DHT22;579;52.046;8.532;2023-04-03T07:22:08;5.30;1.00
1181;DHT22;579;52.046;8.532;2023-04-03T07:24:36;5.20;1.00
1181;DHT22;579;52.046;8.532;2023-04-03T07:27:03;5.50;1.00
1181;DHT22;579;52.046;8.532;2023-04-03T07:32:54;5.40;1.00
1181;DHT22;579;52.046;8.532;2023-04-03T07:35:20;5.90;1.00
1181;DHT22;579;52.046;8.532;2023-04-03T07:37:46;5.90;1.00
1181;DHT22;579;52.046;8.532;2023-04-03T07:40:13;5.90;1.00
1181;DHT22;579;52.046;8.532;2023-04-03T07:42:40;5.90;1.00
1181;DHT22;579;52.046;8.532;2023-04-03T07:45:06;6.30;1.00
1181;DHT22;579;52.046;8.532;2023-04-03T07:47:33;6.70;1.00
1181;DHT22;579;52.046;8.532;2023-04-03T07:55:06;6.90;1.00
1181;DHT22;579;52.046;8.532;2023-04-03T07:57:33;6.80;1.00
1181;DHT22;579;52.046;8.532;2023-04-03T08:00:00;7.00;1.00
1181;DHT22;579;52.046;8.532;2023-04-03T08:02:26;7.00;1.00
1181;DHT22;579;52.046;8.532;2023-04-03T08:04:53;7.10;1.00
1181;DHT22;579;52.046;8.532;2023-04-03T08:07:19;6.90;1.00
1181;DHT22;579;52.046;8.532;2023-04-03T08:09:46;7.00;1.00
1181;DHT22;579;52.046;8.532;2023-04-03T08:14:46;6.80;1.00
1181;DHT22;579;52.046;8.532;2023-04-03T08:17:12;7.10;1.00
1181;DHT22;579;52.046;8.532;2023-04-03T08:19:38;7.30;1.00
1181;DHT22;579;52.046;8.532;2023-04-03T08:22:05;7.30;1.00
1181;DHT22;579;52.046;8.532;2023-04-03T08:24:33;7.50;1.00
1181;DHT22;579;52.046;8.532;2023-04-03T08:27:00;7.90;1.00
1181;DHT22;579;52.046;8.532;2023-04-03T08:29:27;8.20;1.00
1181;DHT22;579;52.046;8.532;2023-04-03T08:36:58;8.30;1.00
1181;DHT22;579;52.046;8.532;2023-04-03T08:39:24;8.80;1.00
1181;DHT22;579;52.046;8.532;2023-04-03T08:41:50;8.80;1.00
1181;DHT22;579;52.046;8.532;2023-04-03T08:44:25;8.80;1.00
1181;DHT22;579;52.046;8.532;2023-04-03T08:47:11;9.10;1.00
1181;DHT22;579;52.046;8.532;2023-04-03T08:49:43;9.20;1.00
1181;DHT22;579;52.046;8.532;2023-04-03T08:52:16;9.50;1.00
1181;DHT22;579;52.046;8.532;2023-04-03T08:59:48;9.50;1.00
1181;DHT22;579;52.046;8.532;2023-04-03T09:02:23;9.70;1.00
1181;DHT22;579;52.046;8.532;2023-04-03T09:04:52;9.80;1.00
1181;DHT22;579;52.046;8.532;2023-04-03T09:07:22;10.00;1.00
1181;DHT22;579;52.046;8.532;2023-04-03T09:09:56;10.40;1.00
1181;DHT22;579;52.046;8.532;2023-04-03T09:12:27;10.70;1.00
1181;DHT22;579;52.046;8.532;2023-04-03T09:15:06;10.80;1.00
1181;DHT22;579;52.046;8.532;2023-04-03T09:20:22;10.80;1.00
1181;DHT22;579;52.046;8.532;2023-04-03T09:22:51;11.00;1.00
1181;DHT22;579;52.046;8.532;2023-04-03T09:25:22;10.80;1.00
1181;DHT22;579;52.046;8.532;2023-04-03T09:27:49;10.60;1.00
1181;DHT22;579;52.046;8.532;2023-04-03T09:30:18;10.50;1.00
1181;DHT22;579;52.046;8.532;2023-04-03T09:32:46;10.80;1.00
1181;DHT22;579;52.046;8.532;2023-04-03T09:42:00;11.70;1.00
1181;DHT22;579;52.046;8.532;2023-04-03T09:44:29;11.70;1.00
1181;DHT22;579;52.046;8.532;2023-04-03T09:46:56;11.90;1.00
1181;DHT22;579;52.046;8.532;2023-04-03T09:49:23;11.80;1.00
1181;DHT22;579;52.046;8.532;2023-04-03T09:51:49;11.90;1.00
1181;DHT22;579;52.046;8.532;2023-04-03T09:54:33;12.30;1.00
1181;DHT22;579;52.046;8.532;2023-04-03T09:57:08;12.10;1.00
1181;DHT22;579;52.046;8.532;2023-04-03T10:04:23;12.50;1.00
1181;DHT22;579;52.046;8.532;2023-04-03T10:06:52;12.50;1.00
1181;DHT22;579;52.046;8.532;2023-04-03T10:09:21;12.20;1.00
1181;DHT22;579;52.046;8.532;2023-04-03T10:12:00;11.90;1.00
1181;DHT22;579;52.046;8.532;2023-04-03T10:14:30;11.60;1.00
1181;DHT22;579;52.046;8.532;2023-04-03T10:17:02;11.10;1.00
1181;DHT22;579;52.046;8.532;2023-04-03T10:19:41;10.70;1.00
1181;DHT22;579;52.046;8.532;2023-04-03T10:27:19;10.70;1.00
1181;DHT22;579;52.046;8.532;2023-04-03T10:29:57;10.70;1.00
1181;DHT22;579;52.046;8.532;2023-04-03T10:32:44;10.90;1.00
1181;DHT22;579;52.046;8.532;2023-04-03T10:35:18;10.90;1.00
1181;DHT22;579;52.046;8.532;2023-04-03T10:38:02;10.90;1.00
1181;DHT22;579;52.046;8.532;2023-04-03T10:40:34;10.70;1.00
1181;DHT22;579;52.046;8.532;2023-04-03T10:45:55;10.80;1.00
1181;DHT22;579;52.046;8.532;2023-04-03T10:48:34;10.80;1.00
1181;DHT22;579;52.046;8.532;2023-04-03T10:51:15;11.00;1.00
1181;DHT22;579;52.046;8.532;2023-04-03T10:53:49;11.30;1.00
1181;DHT22;579;52.046;8.532;2023-04-03T10:56:22;11.60;1.00
1181;DHT22;579;52.046;8.532;2023-04-03T10:59:00;11.20;1.00
1181;DHT22;579;52.046;8.532;2023-04-03T11:01:33;11.00;1.00
1181;DHT22;579;52.046;8.532;2023-04-03T11:07:56;11.10;1.00
1181;DHT22;579;52.046;8.532;2023-04-03T11:10:28;11.20;1.00
1181;DHT22;579;52.046;8.532;2023-04-03T11:13:02;11.60;1.00
1181;DHT22;579;52.046;8.532;2023-04-03T11:15:33;11.80;1.00
1181;DHT22;579;52.046;8.532;2023-04-03T11:18:02;12.10;1.00
1181;DHT22;579;52.046;8.532;2023-04-03T11:20:31;11.90;1.00
1181;DHT22;579;52.046;8.532;2023-04-03T11:23:03;12.00;1.00
1181;DHT22;579;52.046;8.532;2023-04-03T11:28:23;12.20;1.00
1181;DHT22;579;52.046;8.532;2023-04-03T11:30:54;11.80;1.00
1181;DHT22;579;52.046;8.532;2023-04-03T11:33:37;11.50;1.00
1181;DHT22;579;52.046;8.532;2023-04-03T11:36:12;11.60;1.00
1181;DHT22;579;52.046;8.532;2023-04-03T11:38:47;12.40;1.00
1181;DHT22;579;52.046;8.532;2023-04-03T11:41:15;12.50;1.00
1181;DHT22;579;52.046;8.532;2023-04-03T11:50:00;12.00;1.00
1181;DHT22;579;52.046;8.532;2023-04-03T11:55:43;12.00;1.00
1181;DHT22;579;52.046;8.532;2023-04-03T11:58:24;12.10;1.00
1181;DHT22;579;52.046;8.532;2023-04-03T12:00:59;12.20;1.00
1181;DHT22;579;52.046;8.532;2023-04-03T12:11:26;11.50;1.00
1181;DHT22;579;52.046;8.532;2023-04-03T12:14:12;11.70;1.00
1181;DHT22;579;52.046;8.532;2023-04-03T12:16:43;12.00;1.00
1181;DHT22;579;52.046;8.532;2023-04-03T12:19:30;12.20;1.00
1181;DHT22;579;52.046;8.532;2023-04-03T12:22:10;12.10;1.00
1181;DHT22;579;52.046;8.532;2023-04-03T12:24:39;11.70;1.00
1181;DHT22;579;52.046;8.532;2023-04-03T12:34:12;11.70;1.00
1181;DHT22;579;52.046;8.532;2023-04-03T12:36:51;11.60;1.00
1181;DHT22;579;52.046;8.532;2023-04-03T12:39:36;11.60;1.00
1181;DHT22;579;52.046;8.532;2023-04-03T12:42:40;11.70;1.00
1181;DHT22;579;52.046;8.532;2023-04-03T12:45:19;11.70;1.00
1181;DHT22;579;52.046;8.532;2023-04-03T12:47:48;11.70;1.00
1181;DHT22;579;52.046;8.532;2023-04-03T12:57:09;11.50;1.00
1181;DHT22;579;52.046;8.532;2023-04-03T12:59:36;11.50;1.00
1181;DHT22;579;52.046;8.532;2023-04-03T13:02:20;11.40;1.00
1181;DHT22;579;52.046;8.532;2023-04-03T13:04:49;11.30;1.00
1181;DHT22;579;52.046;8.532;2023-04-03T13:07:22;11.90;1.00
1181;DHT22;579;52.046;8.532;2023-04-03T13:10:02;13.40;1.00
1181;DHT22;579;52.046;8.532;2023-04-03T13:15:28;16.60;1.00
1181;DHT22;579;52.046;8.532;2023-04-03T13:17:56;15.40;1.00
1181;DHT22;579;52.046;8.532;2023-04-03T13:20:26;16.10;1.00
1181;DHT22;579;52.046;8.532;2023-04-03T13:22:56;15.80;1.00
1181;DHT22;579;52.046;8.532;2023-04-03T13:25:26;15.80;1.00
1181;DHT22;579;52.046;8.532;2023-04-03T13:27:54;16.00;1.00
1181;DHT22;579;52.046;8.532;2023-04-03T13:30:25;16.00;1.00
1181;DHT22;579;52.046;8.532;2023-04-03T13:37:26;15.90;1.00
1181;DHT22;579;52.046;8.532;2023-04-03T13:40:02;16.10;1.00
1181;DHT22;579;52.046;8.532;2023-04-03T13:42:37;16.80;1.00
1181;DHT22;579;52.046;8.532;2023-04-03T13:45:10;17.70;1.00
1181;DHT22;579;52.046;8.532;2023-04-03T13:47:46;18.60;1.00
1181;DHT22;579;52.046;8.532;2023-04-03T13:50:17;19.40;1.00
1181;DHT22;579;52.046;8.532;2023-04-03T13:52:47;18.60;1.00
1181;DHT22;579;52.046;8.532;2023-04-03T13:59:52;17.20;1.00
1181;DHT22;579;52.046;8.532;2023-04-03T14:02:22;17.90;1.00
1181;DHT22;579;52.046;8.532;2023-04-03T14:04:52;19.30;1.00
1181;DHT22;579;52.046;8.532;2023-04-03T14:07:22;20.80;1.00
1181;DHT22;579;52.046;8.532;2023-04-03T14:09:50;20.60;1.00
1181;DHT22;579;52.046;8.532;2023-04-03T14:12:19;21.10;1.00
1181;DHT22;579;52.046;8.532;2023-04-03T14:14:47;20.90;1.00
1181;DHT22;579;52.046;8.532;2023-04-03T14:21:50;18.90;1.00
1181;DHT22;579;52.046;8.532;2023-04-03T14:24:17;16.90;1.00
1181;DHT22;579;52.046;8.532;2023-04-03T14:26:45;16.20;1.00
1181;DHT22;579;52.046;8.532;2023-04-03T14:29:12;16.80;1.00
1181;DHT22;579;52.046;8.532;2023-04-03T14:31:39;18.10;1.00
1181;DHT22;579;52.046;8.532;2023-04-03T14:34:06;19.60;1.00
1181;DHT22;579;52.046;8.532;2023-04-03T14:36:33;21.20;1.00
1181;DHT22;579;52.046;8.532;2023-04-03T14:43:54;19.50;1.00
1181;DHT22;579;52.046;8.532;2023-04-03T14:46:24;18.50;1.00
1181;DHT22;579;52.046;8.532;2023-04-03T14:48:53;19.30;1.00
1181;DHT22;579;52.046;8.532;2023-04-03T14:51:19;21.80;1.00
1181;DHT22;579;52.046;8.532;2023-04-03T14:53:46;24.40;1.00
1181;DHT22;579;52.046;8.532;2023-04-03T14:56:14;24.80;1.00
1181;DHT22;579;52.046;8.532;2023-04-03T14:58:43;23.20;1.00
1181;DHT22;579;52.046;8.532;2023-04-03T15:05:55;25.20;1.00
1181;DHT22;579;52.046;8.532;2023-04-03T15:08:23;27.80;1.00
1181;DHT22;579;52.046;8.532;2023-04-03T15:10:52;27.00;1.00
1181;DHT22;579;52.046;8.532;2023-04-03T15:13:21;25.90;1.00
1181;DHT22;579;52.046;8.532;2023-04-03T15:15:48;27.00;1.00
1181;DHT22;579;52.046;8.532;2023-04-03T15:18:17;28.40;1.00
1181;DHT22;579;52.046;8.532;2023-04-03T15:20:46;29.30;1.00
1181;DHT22;579;52.046;8.532;2023-04-03T15:27:54;28.20;1.00
1181;DHT22;579;52.046;8.532;2023-04-03T15:30:20;26.90;1.00
1181;DHT22;579;52.046;8.532;2023-04-03T15:32:47;24.70;1.00
1181;DHT22;579;52.046;8.532;2023-04-03T15:35:15;23.70;1.00
1181;DHT22;579;52.046;8.532;2023-04-03T15:37:41;21.60;1.00
1181;DHT22;579;52.046;8.532;2023-04-03T15:40:09;19.80;1.00
1181;DHT22;579;52.046;8.532;2023-04-03T15:42:35;19.40;1.00
1181;DHT22;579;52.046;8.532;2023-04-03T15:47:41;17.90;1.00
1181;DHT22;579;52.046;8.532;2023-04-03T15:50:08;17.40;1.00
1181;DHT22;579;52.046;8.532;2023-04-03T15:52:35;17.30;1.00
1181;DHT22;579;52.046;8.532;2023-04-03T15:55:02;16.00;1.00
1181;DHT22;579;52.046;8.532;2023-04-03T15:57:28;15.80;1.00
1181;DHT22;579;52.046;8.532;2023-04-03T15:59:54;15.50;1.00
1181;DHT22;579;52.046;8.532;2023-04-03T16:02:22;14.90;1.00
1181;DHT22;579;52.046;8.532;2023-04-03T16:09:24;14.00;1.00
1181;DHT22;579;52.046;8.532;2023-04-03T16:11:50;13.60;1.00
1181;DHT22;579;52.046;8.532;2023-04-03T16:14:17;13.10;1.00
1181;DHT22;579;52.046;8.532;2023-04-03T16:16:43;13.00;1.00
1181;DHT22;579;52.046;8.532;2023-04-03T16:19:10;12.60;1.00
1181;DHT22;579;52.046;8.532;2023-04-03T16:21:36;12.30;1.00
1181;DHT22;579;52.046;8.532;2023-04-03T16:24:03;12.20;1.00
1181;DHT22;579;52.046;8.532;2023-04-03T16:30:47;11.90;1.00
1181;DHT22;579;52.046;8.532;2023-04-03T16:33:14;11.60;1.00
1181;DHT22;579;52.046;8.532;2023-04-03T16:35:41;11.80;1.00
1181;DHT22;579;52.046;8.532;2023-04-03T16:38:07;12.00;1.00
1181;DHT22;579;52.046;8.532;2023-04-03T16:40:34;12.10;1.00
1181;DHT22;579;52.046;8.532;2023-04-03T16:43:01;12.10;1.00
1181;DHT22;579;52.046;8.532;2023-04-03T16:45:28;12.10;1.00
1181;DHT22;579;52.046;8.532;2023-04-03T16:50:34;11.60;1.00
1181;DHT22;579;52.046;8.532;2023-04-03T16:53:01;11.30;1.00
1181;DHT22;579;52.046;8.532;2023-04-03T16:55:29;11.20;1.00
1181;DHT22;579;52.046;8.532;2023-04-03T16:57:57;10.90;1.00
1181;DHT22;579;52.046;8.532;2023-04-03T17:00:24;11.00;1.00
1181;DHT22;579;52.046;8.532;2023-04-03T17:02:51;10.90;1.00
1181;DHT22;579;52.046;8.532;2023-04-03T17:05:17;10.80;1.00
1181;DHT22;579;52.046;8.532;2023-04-03T17:10:24;10.80;1.00
1181;DHT22;579;52.046;8.532;2023-04-03T17:12:51;10.70;1.00
1181;DHT22;579;52.046;8.532;2023-04-03T17:15:17;10.80;1.00
1181;DHT22;579;52.046;8.532;2023-04-03T17:17:45;11.00;1.00
1181;DHT22;579;52.046;8.532;2023-04-03T17:20:12;10.80;1.00
1181;DHT22;579;52.046;8.532;2023-04-03T17:22:39;10.90;1.00
1181;DHT22;579;52.046;8.532;2023-04-03T17:25:06;10.90;1.00
1181;DHT22;579;52.046;8.532;2023-04-03T17:30:08;10.90;1.00
1181;DHT22;579;52.046;8.532;2023-04-03T17:32:35;10.60;1.00
1181;DHT22;579;52.046;8.532;2023-04-03T17:35:03;10.40;1.00
1181;DHT22;579;52.046;8.532;2023-04-03T17:37:30;10.30;1.00
1181;DHT22;579;52.046;8.532;2023-04-03T17:39:57;10.20;1.00
1181;DHT22;579;52.046;8.532;2023-04-03T17:42:23;10.20;1.00
1181;DHT22;579;52.046;8.532;2023-04-03T17:44:49;10.10;1.00
1181;DHT22;579;52.046;8.532;2023-04-03T17:49:53;9.80;1.00
1181;DHT22;579;52.046;8.532;2023-04-03T17:52:19;9.80;1.00
1181;DHT22;579;52.046;8.532;2023-04-03T17:54:49;9.70;1.00
1181;DHT22;579;52.046;8.532;2023-04-03T17:57:16;9.80;1.00
1181;DHT22;579;52.046;8.532;2023-04-03T17:59:42;9.80;1.00
1181;DHT22;579;52.046;8.532;2023-04-03T18:02:08;9.70;1.00
1181;DHT22;579;52.046;8.532;2023-04-03T18:04:35;9.60;1.00
1181;DHT22;579;52.046;8.532;2023-04-03T18:12:02;9.80;1.00
1181;DHT22;579;52.046;8.532;2023-04-03T18:14:32;9.60;1.00
1181;DHT22;579;52.046;8.532;2023-04-03T18:16:59;9.50;1.00
1181;DHT22;579;52.046;8.532;2023-04-03T18:19:26;9.20;1.00
1181;DHT22;579;52.046;8.532;2023-04-03T18:21:55;9.00;1.00
1181;DHT22;579;52.046;8.532;2023-04-03T18:24:23;9.00;1.00
1181;DHT22;579;52.046;8.532;2023-04-03T18:26:53;8.90;1.00
1181;DHT22;579;52.046;8.532;2023-04-03T18:34:31;8.60;1.00
1181;DHT22;579;52.046;8.532;2023-04-03T18:36:57;8.40;1.00
1181;DHT22;579;52.046;8.532;2023-04-03T18:39:24;8.30;1.00
1181;DHT22;579;52.046;8.532;2023-04-03T18:41:51;8.20;1.00
1181;DHT22;579;52.046;8.532;2023-04-03T18:44:20;8.10;1.00
1181;DHT22;579;52.046;8.532;2023-04-03T18:46:48;8.00;1.00
1181;DHT22;579;52.046;8.532;2023-04-03T18:49:15;7.90;1.00
1181;DHT22;579;52.046;8.532;2023-04-03T18:56:59;7.60;1.00
1181;DHT22;579;52.046;8.532;2023-04-03T18:59:26;7.40;1.00
1181;DHT22;579;52.046;8.532;2023-04-03T19:01:53;7.30;1.00
1181;DHT22;579;52.046;8.532;2023-04-03T19:04:20;7.30;1.00
1181;DHT22;579;52.046;8.532;2023-04-03T19:06:46;7.50;1.00
1181;DHT22;579;52.046;8.532;2023-04-03T19:09:13;7.30;1.00
1181;DHT22;579;52.046;8.532;2023-04-03T19:11:40;7.20;1.00
1181;DHT22;579;52.046;8.532;2023-04-03T19:19:12;7.20;1.00
1181;DHT22;579;52.046;8.532;2023-04-03T19:21:38;7.10;1.00
1181;DHT22;579;52.046;8.532;2023-04-03T19:24:07;7.00;1.00
1181;DHT22;579;52.046;8.532;2023-04-03T19:26:33;6.90;1.00
1181;DHT22;579;52.046;8.532;2023-04-03T19:29:00;6.80;1.00
1181;DHT22;579;52.046;8.532;2023-04-03T19:31:26;6.80;1.00
1181;DHT22;579;52.046;8.532;2023-04-03T19:33:53;6.70;1.00
1181;DHT22;579;52.046;8.532;2023-04-03T19:38:59;6.60;1.00
1181;DHT22;579;52.046;8.532;2023-04-03T19:41:27;6.60;1.00
1181;DHT22;579;52.046;8.532;2023-04-03T19:43:55;6.60;1.00
1181;DHT22;579;52.046;8.532;2023-04-03T19:46:22;6.50;1.00
1181;DHT22;579;52.046;8.532;2023-04-03T19:48:49;6.50;1.00
1181;DHT22;579;52.046;8.532;2023-04-03T19:51:16;6.40;1.00
1181;DHT22;579;52.046;8.532;2023-04-03T19:53:43;6.40;1.00
1181;DHT22;579;52.046;8.532;2023-04-03T20:00:56;6.10;1.00
1181;DHT22;579;52.046;8.532;2023-04-03T20:03:23;6.00;1.00
1181;DHT22;579;52.046;8.532;2023-04-03T20:05:50;6.00;1.00
1181;DHT22;579;52.046;8.532;2023-04-03T20:08:16;6.00;1.00
1181;DHT22;579;52.046;8.532;2023-04-03T20:10:43;6.00;1.00
1181;DHT22;579;52.046;8.532;2023-04-03T20:13:10;6.00;1.00
1181;DHT22;579;52.046;8.532;2023-04-03T20:15:38;5.90;1.00
1181;DHT22;579;52.046;8.532;2023-04-03T20:20:45;5.80;1.00
1181;DHT22;579;52.046;8.532;2023-04-03T20:23:17;5.90;1.00
1181;DHT22;579;52.046;8.532;2023-04-03T20:25:45;5.80;1.00
1181;DHT22;579;52.046;8.532;2023-04-03T20:28:12;5.60;1.00
1181;DHT22;579;52.046;8.532;2023-04-03T20:30:40;5.60;1.00
1181;DHT22;579;52.046;8.532;2023-04-03T20:33:07;5.50;1.00
1181;DHT22;579;52.046;8.532;2023-04-03T20:35:34;5.50;1.00
1181;DHT22;579;52.046;8.532;2023-04-03T20:41:59;5.30;1.00
1181;DHT22;579;52.046;8.532;2023-04-03T20:44:25;5.40;1.00
1181;DHT22;579;52.046;8.532;2023-04-03T20:46:51;5.20;1.00
1181;DHT22;579;52.046;8.532;2023-04-03T20:49:17;5.10;1.00
1181;DHT22;579;52.046;8.532;2023-04-03T20:51:45;5.20;1.00
1181;DHT22;579;52.046;8.532;2023-04-03T20:54:11;5.20;1.00
1181;DHT22;579;52.046;8.532;2023-04-03T20:56:38;5.10;1.00
1181;DHT22;579;52.046;8.532;2023-04-03T21:04:13;5.00;1.00
1181;DHT22;579;52.046;8.532;2023-04-03T21:19:23;4.60;1.00
1181;DHT22;579;52.046;8.532;2023-04-03T21:25:27;4.60;1.00
1181;DHT22;579;52.046;8.532;2023-04-03T21:27:53;4.40;1.00
1181;DHT22;579;52.046;8.532;2023-04-03T21:30:20;4.40;1.00
1181;DHT22;579;52.046;8.532;2023-04-03T21:32:47;4.40;1.00
1181;DHT22;579;52.046;8.532;2023-04-03T21:35:13;4.40;1.00
1181;DHT22;579;52.046;8.532;2023-04-03T21:37:39;4.40;1.00
1181;DHT22;579;52.046;8.532;2023-04-03T21:40:06;4.30;1.00